Terminal Aerodrome Forecast
Issued by NWS Wichita, KS

Home | Current Version | Previous Version | Graphics & Text | Print | Product List | Glossary Off
Versions: 1 2 3 4 5 6 7 8 9 10 11 12 13 14 15 16 17 18 19 20

000
FTUS43 KICT 301738
TAFICT
TAF
KICT 301738Z 3018/0118 20010KT P6SM VCSH OVC025
     FM302000 17005KT P6SM VCSH OVC035
     FM302300 26012G24KT P6SM VCSH OVC015
     FM010200 29018G28KT P6SM OVC015
     FM010800 29015G23KT P6SM BKN025
     FM011200 28013KT P6SM BKN050
     FM011500 29018G26KT P6SM SCT250=

USA.gov is the U.S. government's official web portal to all federal, state and local government web resources and services.